Hlavní strana
METAR-TAF:

METAR-TAF

Letiště :

Ivalo, Finsko

zeměpisná šířka: 68-37N, zeměpisná délka: 027-25E, výška: 147 m

Aktuální stav počasí

Zpráva byla vytvořena před 25 minutami, v 00:50 UTC
Jihojihozápadní vítr 11 kt, proměnlivý mezi jižním a jihozápadním
Teplota -1°C
Vlhkost vzduchu 86%
Tlak 1013 hPa
Viditelnost 10 km a více
Zataženo ve výšce 1100 ft

METAR: EFIV 040050Z AUTO 21011KT 170V230 9999 OVC011 M01/M03 Q1013

Čas: 03:15 (01:15 UTC)

Předpověď počasí

Zpráva byla vytvořena před 16 hodinami a 44 minutami, v 08:31 UTC
Předpověď platná od 03 v 09 UTC do 03 v 13 UTC
Jihojihozápadní vítr 14 kt
Viditelnost 10 km a více
Oblačno až skoro zataženo ve výšce 1500 ft
slabé sněžení, déšť
Dočasný
od 03 v 09 UTC do 03 v 13 UTC
Jihojihozápadní vítr 15 kt s nárazy do 25 kt
Viditelnost: 6000 m
Oblačno až skoro zataženo ve výšce 1200 ft

TAF: EFIV 030831Z 0309/0313 20014KT 9999 -SNRA BKN015 TEMPO 0309/0313 20015G25KT 6000 BKN012

Stav a předpovědi počasí z více než 4 000 letišť (zprávy METAR a TAF).

Červené a žluté tečky na mapě představují dostupné meteorologické stanice.

Když kurzor umístíte na tečku, zobrazí se název stanice.

Pak kliknutím zobrazíte stav a předpověď počasí.

Chcete-li změnit mapu, kliknutím na zelené tlačítko se znaménkem +mapu přiblížíte, kliknutím na zelené tlačítko se znaménkem – mapu oddálíte a kliknutím na zelené šipky přejdete na sousední mapy.


METAR-TAF: